sensor_id;sensor_type;location;lat;lon;timestamp;P1;durP1;ratioP1;P2;durP2;ratioP2
65583;SDS011;62116;43.582;1.470;2022-08-18T00:01:19;5.25;;;1.15;;
65583;SDS011;62116;43.582;1.470;2022-08-18T00:03:47;3.38;;;1.25;;
65583;SDS011;62116;43.582;1.470;2022-08-18T00:06:13;4.68;;;1.20;;
65583;SDS011;62116;43.582;1.470;2022-08-18T00:08:39;6.38;;;1.10;;
65583;SDS011;62116;43.582;1.470;2022-08-18T00:11:05;4.45;;;1.10;;
65583;SDS011;62116;43.582;1.470;2022-08-18T00:13:31;6.60;;;1.55;;
65583;SDS011;62116;43.582;1.470;2022-08-18T00:15:57;4.63;;;1.10;;
65583;SDS011;62116;43.582;1.470;2022-08-18T00:18:22;5.13;;;1.15;;
65583;SDS011;62116;43.582;1.470;2022-08-18T00:20:48;4.90;;;1.23;;
65583;SDS011;62116;43.582;1.470;2022-08-18T00:23:13;8.05;;;1.20;;
65583;SDS011;62116;43.582;1.470;2022-08-18T00:25:39;6.13;;;1.40;;
65583;SDS011;62116;43.582;1.470;2022-08-18T00:28:05;7.50;;;1.40;;
65583;SDS011;62116;43.582;1.470;2022-08-18T00:30:31;4.80;;;1.20;;
65583;SDS011;62116;43.582;1.470;2022-08-18T00:32:57;4.07;;;1.20;;
65583;SDS011;62116;43.582;1.470;2022-08-18T00:35:25;6.35;;;1.42;;
65583;SDS011;62116;43.582;1.470;2022-08-18T00:37:53;4.85;;;1.20;;
65583;SDS011;62116;43.582;1.470;2022-08-18T00:40:25;5.53;;;1.27;;
65583;SDS011;62116;43.582;1.470;2022-08-18T00:42:55;5.15;;;1.25;;
65583;SDS011;62116;43.582;1.470;2022-08-18T00:45:28;5.63;;;1.40;;
65583;SDS011;62116;43.582;1.470;2022-08-18T00:47:56;4.65;;;1.38;;
65583;SDS011;62116;43.582;1.470;2022-08-18T00:50:24;6.15;;;1.40;;
65583;SDS011;62116;43.582;1.470;2022-08-18T00:52:58;6.30;;;1.60;;
65583;SDS011;62116;43.582;1.470;2022-08-18T00:55:28;4.82;;;1.33;;
65583;SDS011;62116;43.582;1.470;2022-08-18T00:57:57;6.10;;;1.30;;
65583;SDS011;62116;43.582;1.470;2022-08-18T01:00:33;4.50;;;1.48;;
65583;SDS011;62116;43.582;1.470;2022-08-18T01:03:00;7.35;;;1.45;;
65583;SDS011;62116;43.582;1.470;2022-08-18T01:05:35;4.80;;;1.30;;
65583;SDS011;62116;43.582;1.470;2022-08-18T01:08:05;7.88;;;1.40;;
65583;SDS011;62116;43.582;1.470;2022-08-18T01:10:36;7.07;;;1.60;;
65583;SDS011;62116;43.582;1.470;2022-08-18T01:13:03;5.05;;;1.40;;
65583;SDS011;62116;43.582;1.470;2022-08-18T01:15:29;10.27;;;1.58;;
65583;SDS011;62116;43.582;1.470;2022-08-18T01:17:56;6.60;;;1.50;;
65583;SDS011;62116;43.582;1.470;2022-08-18T01:20:44;6.10;;;1.55;;
65583;SDS011;62116;43.582;1.470;2022-08-18T01:23:35;8.43;;;1.30;;
65583;SDS011;62116;43.582;1.470;2022-08-18T01:26:00;6.18;;;1.30;;
65583;SDS011;62116;43.582;1.470;2022-08-18T01:31:02;5.28;;;1.60;;
65583;SDS011;62116;43.582;1.470;2022-08-18T01:33:32;5.40;;;1.50;;
65583;SDS011;62116;43.582;1.470;2022-08-18T01:36:08;6.88;;;1.25;;
65583;SDS011;62116;43.582;1.470;2022-08-18T01:38:34;5.85;;;1.23;;
65583;SDS011;62116;43.582;1.470;2022-08-18T01:40:59;4.88;;;1.30;;
65583;SDS011;62116;43.582;1.470;2022-08-18T01:43:25;6.10;;;1.40;;
65583;SDS011;62116;43.582;1.470;2022-08-18T01:45:51;4.63;;;1.27;;
65583;SDS011;62116;43.582;1.470;2022-08-18T01:48:16;7.30;;;1.25;;
65583;SDS011;62116;43.582;1.470;2022-08-18T01:50:42;7.63;;;1.77;;
65583;SDS011;62116;43.582;1.470;2022-08-18T01:53:09;4.55;;;1.30;;
65583;SDS011;62116;43.582;1.470;2022-08-18T01:55:36;6.18;;;1.52;;
65583;SDS011;62116;43.582;1.470;2022-08-18T01:58:03;6.55;;;1.40;;
65583;SDS011;62116;43.582;1.470;2022-08-18T02:00:31;4.38;;;1.33;;
65583;SDS011;62116;43.582;1.470;2022-08-18T02:02:56;6.28;;;1.33;;
65583;SDS011;62116;43.582;1.470;2022-08-18T02:05:28;3.85;;;1.20;;
65583;SDS011;62116;43.582;1.470;2022-08-18T02:07:58;5.13;;;1.45;;
65583;SDS011;62116;43.582;1.470;2022-08-18T02:10:24;4.53;;;1.30;;
65583;SDS011;62116;43.582;1.470;2022-08-18T02:12:49;4.15;;;1.25;;
65583;SDS011;62116;43.582;1.470;2022-08-18T02:15:14;4.20;;;1.23;;
65583;SDS011;62116;43.582;1.470;2022-08-18T02:17:41;6.93;;;1.60;;
65583;SDS011;62116;43.582;1.470;2022-08-18T02:20:08;7.82;;;1.48;;
65583;SDS011;62116;43.582;1.470;2022-08-18T02:22:36;4.15;;;1.33;;
65583;SDS011;62116;43.582;1.470;2022-08-18T02:25:02;4.43;;;1.40;;
65583;SDS011;62116;43.582;1.470;2022-08-18T02:27:28;4.90;;;1.23;;
65583;SDS011;62116;43.582;1.470;2022-08-18T02:29:54;6.88;;;1.20;;
65583;SDS011;62116;43.582;1.470;2022-08-18T02:32:20;5.45;;;1.20;;
65583;SDS011;62116;43.582;1.470;2022-08-18T02:34:46;4.93;;;1.10;;
65583;SDS011;62116;43.582;1.470;2022-08-18T02:37:11;5.90;;;1.30;;
65583;SDS011;62116;43.582;1.470;2022-08-18T02:39:36;6.75;;;1.30;;
65583;SDS011;62116;43.582;1.470;2022-08-18T02:42:05;7.45;;;1.60;;
65583;SDS011;62116;43.582;1.470;2022-08-18T02:44:32;6.50;;;1.30;;
65583;SDS011;62116;43.582;1.470;2022-08-18T02:46:58;4.07;;;1.30;;
65583;SDS011;62116;43.582;1.470;2022-08-18T02:49:23;4.15;;;1.38;;
65583;SDS011;62116;43.582;1.470;2022-08-18T02:51:50;6.47;;;1.40;;
65583;SDS011;62116;43.582;1.470;2022-08-18T02:54:17;7.15;;;1.42;;
65583;SDS011;62116;43.582;1.470;2022-08-18T02:56:44;4.32;;;1.30;;
65583;SDS011;62116;43.582;1.470;2022-08-18T02:59:15;4.47;;;1.50;;
65583;SDS011;62116;43.582;1.470;2022-08-18T03:01:46;3.92;;;1.30;;
65583;SDS011;62116;43.582;1.470;2022-08-18T03:04:14;8.07;;;1.50;;
65583;SDS011;62116;43.582;1.470;2022-08-18T03:06:44;4.97;;;1.30;;
65583;SDS011;62116;43.582;1.470;2022-08-18T03:09:10;3.97;;;1.35;;
65583;SDS011;62116;43.582;1.470;2022-08-18T03:11:36;5.63;;;1.35;;
65583;SDS011;62116;43.582;1.470;2022-08-18T03:14:03;5.88;;;1.40;;
65583;SDS011;62116;43.582;1.470;2022-08-18T03:16:29;4.88;;;1.30;;
65583;SDS011;62116;43.582;1.470;2022-08-18T03:18:57;4.85;;;1.50;;
65583;SDS011;62116;43.582;1.470;2022-08-18T03:21:24;4.40;;;1.50;;
65583;SDS011;62116;43.582;1.470;2022-08-18T03:23:51;5.68;;;1.27;;
65583;SDS011;62116;43.582;1.470;2022-08-18T03:26:18;3.90;;;1.40;;
65583;SDS011;62116;43.582;1.470;2022-08-18T03:28:46;4.63;;;1.55;;
65583;SDS011;62116;43.582;1.470;2022-08-18T03:31:13;4.68;;;1.48;;
65583;SDS011;62116;43.582;1.470;2022-08-18T03:33:40;4.72;;;1.50;;
65583;SDS011;62116;43.582;1.470;2022-08-18T03:36:16;5.40;;;1.42;;
65583;SDS011;62116;43.582;1.470;2022-08-18T03:38:46;5.63;;;1.40;;
65583;SDS011;62116;43.582;1.470;2022-08-18T03:41:13;5.28;;;1.55;;
65583;SDS011;62116;43.582;1.470;2022-08-18T03:43:40;5.03;;;1.40;;
65583;SDS011;62116;43.582;1.470;2022-08-18T03:46:07;5.45;;;1.42;;
65583;SDS011;62116;43.582;1.470;2022-08-18T03:48:35;5.32;;;1.50;;
65583;SDS011;62116;43.582;1.470;2022-08-18T03:51:09;6.93;;;1.50;;
65583;SDS011;62116;43.582;1.470;2022-08-18T03:53:40;4.63;;;1.55;;
65583;SDS011;62116;43.582;1.470;2022-08-18T03:56:06;5.97;;;1.50;;
65583;SDS011;62116;43.582;1.470;2022-08-18T03:58:55;3.55;;;1.40;;
65583;SDS011;62116;43.582;1.470;2022-08-18T04:01:25;3.78;;;1.40;;
65583;SDS011;62116;43.582;1.470;2022-08-18T04:03:53;6.20;;;1.73;;
65583;SDS011;62116;43.582;1.470;2022-08-18T04:06:29;4.45;;;1.60;;
65583;SDS011;62116;43.582;1.470;2022-08-18T04:08:58;4.75;;;1.55;;
65583;SDS011;62116;43.582;1.470;2022-08-18T04:11:26;5.30;;;1.60;;
65583;SDS011;62116;43.582;1.470;2022-08-18T04:13:53;4.90;;;1.70;;
65583;SDS011;62116;43.582;1.470;2022-08-18T04:16:21;3.30;;;1.30;;
65583;SDS011;62116;43.582;1.470;2022-08-18T04:18:48;4.80;;;1.50;;
65583;SDS011;62116;43.582;1.470;2022-08-18T04:21:13;6.72;;;1.75;;
65583;SDS011;62116;43.582;1.470;2022-08-18T04:23:39;6.78;;;1.58;;
65583;SDS011;62116;43.582;1.470;2022-08-18T04:26:05;5.50;;;1.38;;
65583;SDS011;62116;43.582;1.470;2022-08-18T04:28:33;6.82;;;1.73;;
65583;SDS011;62116;43.582;1.470;2022-08-18T04:30:58;5.75;;;1.45;;
65583;SDS011;62116;43.582;1.470;2022-08-18T04:33:34;4.93;;;1.60;;
65583;SDS011;62116;43.582;1.470;2022-08-18T04:36:05;5.70;;;1.58;;
65583;SDS011;62116;43.582;1.470;2022-08-18T04:38:33;4.80;;;1.63;;
65583;SDS011;62116;43.582;1.470;2022-08-18T04:40:58;5.10;;;1.50;;
65583;SDS011;62116;43.582;1.470;2022-08-18T04:43:23;3.92;;;1.40;;
65583;SDS011;62116;43.582;1.470;2022-08-18T04:45:49;6.30;;;1.60;;
65583;SDS011;62116;43.582;1.470;2022-08-18T04:48:15;5.03;;;1.30;;
65583;SDS011;62116;43.582;1.470;2022-08-18T04:50:41;5.63;;;1.45;;
65583;SDS011;62116;43.582;1.470;2022-08-18T04:53:07;3.47;;;1.30;;
65583;SDS011;62116;43.582;1.470;2022-08-18T04:55:52;7.18;;;1.65;;
65583;SDS011;62116;43.582;1.470;2022-08-18T04:58:19;5.38;;;1.67;;
65583;SDS011;62116;43.582;1.470;2022-08-18T05:00:54;8.13;;;1.70;;
65583;SDS011;62116;43.582;1.470;2022-08-18T05:03:24;5.50;;;1.90;;
65583;SDS011;62116;43.582;1.470;2022-08-18T05:05:53;5.85;;;1.67;;
65583;SDS011;62116;43.582;1.470;2022-08-18T05:08:22;5.50;;;1.70;;
65583;SDS011;62116;43.582;1.470;2022-08-18T05:10:51;6.90;;;1.60;;
65583;SDS011;62116;43.582;1.470;2022-08-18T05:13:18;4.40;;;1.60;;
65583;SDS011;62116;43.582;1.470;2022-08-18T05:15:44;4.68;;;1.55;;
65583;SDS011;62116;43.582;1.470;2022-08-18T05:18:09;5.05;;;1.75;;
65583;SDS011;62116;43.582;1.470;2022-08-18T05:20:36;7.18;;;1.80;;
65583;SDS011;62116;43.582;1.470;2022-08-18T05:23:02;7.72;;;1.88;;
65583;SDS011;62116;43.582;1.470;2022-08-18T05:25:28;6.43;;;1.60;;
65583;SDS011;62116;43.582;1.470;2022-08-18T05:27:54;6.10;;;1.90;;
65583;SDS011;62116;43.582;1.470;2022-08-18T05:30:19;4.47;;;1.70;;
65583;SDS011;62116;43.582;1.470;2022-08-18T05:32:45;5.53;;;1.75;;
65583;SDS011;62116;43.582;1.470;2022-08-18T05:35:15;5.88;;;1.80;;
65583;SDS011;62116;43.582;1.470;2022-08-18T05:40:37;7.60;;;1.80;;
65583;SDS011;62116;43.582;1.470;2022-08-18T05:43:03;8.30;;;2.13;;
65583;SDS011;62116;43.582;1.470;2022-08-18T05:45:30;9.18;;;2.00;;
65583;SDS011;62116;43.582;1.470;2022-08-18T05:47:58;7.47;;;2.13;;
65583;SDS011;62116;43.582;1.470;2022-08-18T05:50:25;7.45;;;2.00;;
65583;SDS011;62116;43.582;1.470;2022-08-18T05:53:11;6.40;;;2.00;;
65583;SDS011;62116;43.582;1.470;2022-08-18T05:55:40;3.65;;;1.75;;
65583;SDS011;62116;43.582;1.470;2022-08-18T05:58:29;8.73;;;2.20;;
65583;SDS011;62116;43.582;1.470;2022-08-18T06:01:17;9.37;;;2.37;;
65583;SDS011;62116;43.582;1.470;2022-08-18T06:03:48;6.63;;;2.13;;
65583;SDS011;62116;43.582;1.470;2022-08-18T06:06:20;4.88;;;1.80;;
65583;SDS011;62116;43.582;1.470;2022-08-18T06:08:52;8.95;;;2.28;;
65583;SDS011;62116;43.582;1.470;2022-08-18T06:11:23;5.85;;;2.17;;
65583;SDS011;62116;43.582;1.470;2022-08-18T06:13:49;6.50;;;1.95;;
65583;SDS011;62116;43.582;1.470;2022-08-18T06:16:34;8.68;;;2.05;;
65583;SDS011;62116;43.582;1.470;2022-08-18T06:22:16;6.10;;;1.92;;
65583;SDS011;62116;43.582;1.470;2022-08-18T06:33:12;5.13;;;1.70;;
65583;SDS011;62116;43.582;1.470;2022-08-18T06:36:02;7.68;;;2.13;;
65583;SDS011;62116;43.582;1.470;2022-08-18T06:46:26;3.67;;;1.70;;
65583;SDS011;62116;43.582;1.470;2022-08-18T06:49:07;3.45;;;1.75;;
65583;SDS011;62116;43.582;1.470;2022-08-18T06:51:35;4.57;;;1.92;;
65583;SDS011;62116;43.582;1.470;2022-08-18T06:54:02;6.70;;;1.98;;
65583;SDS011;62116;43.582;1.470;2022-08-18T07:01:51;5.38;;;1.85;;
65583;SDS011;62116;43.582;1.470;2022-08-18T07:10:27;6.10;;;2.08;;
65583;SDS011;62116;43.582;1.470;2022-08-18T07:15:31;7.30;;;1.90;;
65583;SDS011;62116;43.582;1.470;2022-08-18T07:18:02;6.97;;;1.83;;
65583;SDS011;62116;43.582;1.470;2022-08-18T07:23:28;9.52;;;2.38;;
65583;SDS011;62116;43.582;1.470;2022-08-18T07:28:49;6.88;;;1.70;;
65583;SDS011;62116;43.582;1.470;2022-08-18T07:34:18;7.50;;;1.98;;
65583;SDS011;62116;43.582;1.470;2022-08-18T07:37:00;8.10;;;2.10;;
65583;SDS011;62116;43.582;1.470;2022-08-18T07:39:37;7.10;;;2.00;;
65583;SDS011;62116;43.582;1.470;2022-08-18T07:42:12;6.72;;;1.90;;
65583;SDS011;62116;43.582;1.470;2022-08-18T07:47:44;3.80;;;1.80;;
65583;SDS011;62116;43.582;1.470;2022-08-18T07:50:33;5.60;;;1.70;;
65583;SDS011;62116;43.582;1.470;2022-08-18T07:58:37;4.85;;;1.70;;
65583;SDS011;62116;43.582;1.470;2022-08-18T08:04:21;3.63;;;1.90;;
65583;SDS011;62116;43.582;1.470;2022-08-18T08:07:05;6.78;;;1.90;;
65583;SDS011;62116;43.582;1.470;2022-08-18T08:12:16;3.45;;;1.50;;
65583;SDS011;62116;43.582;1.470;2022-08-18T08:18:32;2.65;;;1.25;;
65583;SDS011;62116;43.582;1.470;2022-08-18T08:21:09;6.95;;;1.55;;
65583;SDS011;62116;43.582;1.470;2022-08-18T08:32:03;4.85;;;1.90;;
65583;SDS011;62116;43.582;1.470;2022-08-18T08:34:56;4.70;;;1.60;;
65583;SDS011;62116;43.582;1.470;2022-08-18T08:37:34;4.22;;;1.70;;
65583;SDS011;62116;43.582;1.470;2022-08-18T08:42:44;5.07;;;1.90;;
65583;SDS011;62116;43.582;1.470;2022-08-18T08:45:15;5.93;;;1.77;;
65583;SDS011;62116;43.582;1.470;2022-08-18T08:50:24;4.43;;;1.50;;
65583;SDS011;62116;43.582;1.470;2022-08-18T08:55:28;3.10;;;0.93;;
65583;SDS011;62116;43.582;1.470;2022-08-18T09:00:50;3.10;;;1.15;;
65583;SDS011;62116;43.582;1.470;2022-08-18T09:16:41;3.10;;;1.30;;
65583;SDS011;62116;43.582;1.470;2022-08-18T09:24:46;4.60;;;1.10;;
65583;SDS011;62116;43.582;1.470;2022-08-18T09:37:51;3.70;;;1.00;;
65583;SDS011;62116;43.582;1.470;2022-08-18T09:40:45;4.60;;;1.50;;
65583;SDS011;62116;43.582;1.470;2022-08-18T09:43:34;3.45;;;1.25;;
65583;SDS011;62116;43.582;1.470;2022-08-18T09:46:04;5.95;;;1.17;;
65583;SDS011;62116;43.582;1.470;2022-08-18T09:48:35;3.30;;;1.10;;
65583;SDS011;62116;43.582;1.470;2022-08-18T09:56:11;3.47;;;1.20;;
65583;SDS011;62116;43.582;1.470;2022-08-18T09:58:57;5.32;;;1.58;;
65583;SDS011;62116;43.582;1.470;2022-08-18T10:06:43;3.70;;;1.42;;
65583;SDS011;62116;43.582;1.470;2022-08-18T10:12:02;3.40;;;1.20;;
65583;SDS011;62116;43.582;1.470;2022-08-18T10:22:35;5.43;;;1.23;;
65583;SDS011;62116;43.582;1.470;2022-08-18T10:25:01;3.93;;;1.40;;
65583;SDS011;62116;43.582;1.470;2022-08-18T10:30:44;2.42;;;1.10;;
65583;SDS011;62116;43.582;1.470;2022-08-18T10:33:06;3.55;;;1.20;;
65583;SDS011;62116;43.582;1.470;2022-08-18T10:38:21;4.95;;;1.38;;
65583;SDS011;62116;43.582;1.470;2022-08-18T10:41:08;3.42;;;1.38;;
65583;SDS011;62116;43.582;1.470;2022-08-18T10:43:41;3.20;;;1.38;;
65583;SDS011;62116;43.582;1.470;2022-08-18T10:46:23;3.15;;;1.20;;
65583;SDS011;62116;43.582;1.470;2022-08-18T10:49:18;4.70;;;1.35;;
65583;SDS011;62116;43.582;1.470;2022-08-18T10:59:49;2.47;;;1.40;;
65583;SDS011;62116;43.582;1.470;2022-08-18T11:05:06;3.90;;;1.52;;
65583;SDS011;62116;43.582;1.470;2022-08-18T11:07:33;4.82;;;1.30;;
65583;SDS011;62116;43.582;1.470;2022-08-18T11:10:00;5.70;;;2.28;;
65583;SDS011;62116;43.582;1.470;2022-08-18T11:26:43;3.38;;;1.60;;
65583;SDS011;62116;43.582;1.470;2022-08-18T11:32:39;5.15;;;1.90;;
65583;SDS011;62116;43.582;1.470;2022-08-18T11:34:43;3.65;;;1.50;;
65583;SDS011;62116;43.582;1.470;2022-08-18T11:37:25;4.05;;;1.80;;
65583;SDS011;62116;43.582;1.470;2022-08-18T11:40:52;2.97;;;1.63;;
65583;SDS011;62116;43.582;1.470;2022-08-18T11:42:59;3.30;;;1.83;;
65583;SDS011;62116;43.582;1.470;2022-08-18T11:58:50;2.35;;;1.13;;
65583;SDS011;62116;43.582;1.470;2022-08-18T12:07:15;3.97;;;1.35;;
65583;SDS011;62116;43.582;1.470;2022-08-18T12:09:38;3.35;;;1.40;;
65583;SDS011;62116;43.582;1.470;2022-08-18T12:12:24;3.35;;;1.40;;
65583;SDS011;62116;43.582;1.470;2022-08-18T12:14:55;3.28;;;1.40;;
65583;SDS011;62116;43.582;1.470;2022-08-18T12:17:27;3.58;;;1.42;;
65583;SDS011;62116;43.582;1.470;2022-08-18T12:19:54;4.40;;;1.40;;
65583;SDS011;62116;43.582;1.470;2022-08-18T12:22:23;3.75;;;1.48;;
65583;SDS011;62116;43.582;1.470;2022-08-18T12:24:51;3.58;;;1.27;;
65583;SDS011;62116;43.582;1.470;2022-08-18T12:27:18;4.60;;;1.20;;
65583;SDS011;62116;43.582;1.470;2022-08-18T12:29:45;2.47;;;1.23;;
65583;SDS011;62116;43.582;1.470;2022-08-18T12:32:11;2.15;;;1.02;;
65583;SDS011;62116;43.582;1.470;2022-08-18T12:34:37;2.25;;;1.10;;
65583;SDS011;62116;43.582;1.470;2022-08-18T12:37:02;3.95;;;1.40;;
65583;SDS011;62116;43.582;1.470;2022-08-18T12:39:29;4.00;;;1.40;;
65583;SDS011;62116;43.582;1.470;2022-08-18T12:41:55;3.25;;;1.38;;
65583;SDS011;62116;43.582;1.470;2022-08-18T12:44:22;2.50;;;1.02;;
65583;SDS011;62116;43.582;1.470;2022-08-18T12:46:48;2.30;;;1.00;;
65583;SDS011;62116;43.582;1.470;2022-08-18T12:49:14;2.22;;;0.90;;
65583;SDS011;62116;43.582;1.470;2022-08-18T12:51:45;1.70;;;1.00;;
65583;SDS011;62116;43.582;1.470;2022-08-18T12:54:11;3.42;;;1.00;;
65583;SDS011;62116;43.582;1.470;2022-08-18T12:56:37;2.67;;;1.05;;
65583;SDS011;62116;43.582;1.470;2022-08-18T12:59:05;1.25;;;0.73;;
65583;SDS011;62116;43.582;1.470;2022-08-18T13:01:33;1.52;;;0.88;;
65583;SDS011;62116;43.582;1.470;2022-08-18T13:03:59;2.03;;;0.80;;
65583;SDS011;62116;43.582;1.470;2022-08-18T13:06:26;2.03;;;1.05;;
65583;SDS011;62116;43.582;1.470;2022-08-18T13:08:52;2.35;;;1.05;;
65583;SDS011;62116;43.582;1.470;2022-08-18T13:11:19;2.55;;;0.90;;
65583;SDS011;62116;43.582;1.470;2022-08-18T13:13:46;2.30;;;0.93;;
65583;SDS011;62116;43.582;1.470;2022-08-18T13:16:12;1.63;;;0.95;;
65583;SDS011;62116;43.582;1.470;2022-08-18T13:18:39;1.75;;;0.80;;
65583;SDS011;62116;43.582;1.470;2022-08-18T13:21:08;2.30;;;0.90;;
65583;SDS011;62116;43.582;1.470;2022-08-18T13:23:36;2.15;;;0.85;;
65583;SDS011;62116;43.582;1.470;2022-08-18T13:26:03;1.50;;;0.88;;
65583;SDS011;62116;43.582;1.470;2022-08-18T13:28:31;2.35;;;1.15;;
65583;SDS011;62116;43.582;1.470;2022-08-18T13:30:58;4.65;;;1.20;;
65583;SDS011;62116;43.582;1.470;2022-08-18T13:33:24;3.22;;;1.20;;
65583;SDS011;62116;43.582;1.470;2022-08-18T13:35:50;3.60;;;1.40;;
65583;SDS011;62116;43.582;1.470;2022-08-18T13:38:16;1.92;;;1.13;;
65583;SDS011;62116;43.582;1.470;2022-08-18T13:40:44;4.47;;;1.30;;
65583;SDS011;62116;43.582;1.470;2022-08-18T13:43:12;2.22;;;1.20;;
65583;SDS011;62116;43.582;1.470;2022-08-18T13:45:38;2.92;;;1.27;;
65583;SDS011;62116;43.582;1.470;2022-08-18T13:48:03;2.75;;;1.20;;
65583;SDS011;62116;43.582;1.470;2022-08-18T13:50:29;5.05;;;1.17;;
65583;SDS011;62116;43.582;1.470;2022-08-18T13:52:55;2.53;;;1.20;;
65583;SDS011;62116;43.582;1.470;2022-08-18T13:55:24;2.97;;;1.45;;
65583;SDS011;62116;43.582;1.470;2022-08-18T13:57:50;3.53;;;1.35;;
65583;SDS011;62116;43.582;1.470;2022-08-18T14:00:16;4.30;;;1.33;;
65583;SDS011;62116;43.582;1.470;2022-08-18T14:02:45;2.80;;;1.40;;
65583;SDS011;62116;43.582;1.470;2022-08-18T14:05:12;29.52;;;2.60;;
65583;SDS011;62116;43.582;1.470;2022-08-18T14:07:38;5.75;;;1.60;;
65583;SDS011;62116;43.582;1.470;2022-08-18T14:10:04;5.25;;;1.70;;
65583;SDS011;62116;43.582;1.470;2022-08-18T14:12:34;3.78;;;2.00;;
65583;SDS011;62116;43.582;1.470;2022-08-18T14:15:02;4.45;;;2.00;;
65583;SDS011;62116;43.582;1.470;2022-08-18T14:17:32;3.20;;;1.80;;
65583;SDS011;62116;43.582;1.470;2022-08-18T14:19:58;3.63;;;1.88;;
65583;SDS011;62116;43.582;1.470;2022-08-18T14:22:43;5.13;;;1.90;;
65583;SDS011;62116;43.582;1.470;2022-08-18T14:25:27;3.40;;;1.80;;
65583;SDS011;62116;43.582;1.470;2022-08-18T14:28:11;3.75;;;1.75;;
65583;SDS011;62116;43.582;1.470;2022-08-18T14:30:37;3.88;;;1.77;;
65583;SDS011;62116;43.582;1.470;2022-08-18T14:33:06;7.57;;;1.90;;
65583;SDS011;62116;43.582;1.470;2022-08-18T14:35:33;3.88;;;2.00;;
65583;SDS011;62116;43.582;1.470;2022-08-18T14:37:59;3.65;;;2.08;;
65583;SDS011;62116;43.582;1.470;2022-08-18T14:40:28;3.45;;;1.88;;
65583;SDS011;62116;43.582;1.470;2022-08-18T14:42:55;2.50;;;1.90;;
65583;SDS011;62116;43.582;1.470;2022-08-18T14:45:21;5.15;;;2.00;;
65583;SDS011;62116;43.582;1.470;2022-08-18T14:47:48;2.97;;;1.80;;
65583;SDS011;62116;43.582;1.470;2022-08-18T14:50:16;5.22;;;1.80;;
65583;SDS011;62116;43.582;1.470;2022-08-18T14:52:41;3.13;;;1.50;;
65583;SDS011;62116;43.582;1.470;2022-08-18T14:55:07;2.83;;;1.58;;
65583;SDS011;62116;43.582;1.470;2022-08-18T14:57:36;2.83;;;1.50;;
65583;SDS011;62116;43.582;1.470;2022-08-18T15:00:03;3.50;;;1.60;;
65583;SDS011;62116;43.582;1.470;2022-08-18T15:02:34;5.22;;;1.70;;
65583;SDS011;62116;43.582;1.470;2022-08-18T15:05:00;3.28;;;1.88;;
65583;SDS011;62116;43.582;1.470;2022-08-18T15:07:25;3.35;;;1.77;;
65583;SDS011;62116;43.582;1.470;2022-08-18T15:09:52;2.85;;;1.50;;
65583;SDS011;62116;43.582;1.470;2022-08-18T15:12:17;3.15;;;1.30;;
65583;SDS011;62116;43.582;1.470;2022-08-18T15:14:44;2.72;;;1.60;;
65583;SDS011;62116;43.582;1.470;2022-08-18T15:17:10;3.75;;;1.67;;
65583;SDS011;62116;43.582;1.470;2022-08-18T15:19:36;3.00;;;1.80;;
65583;SDS011;62116;43.582;1.470;2022-08-18T15:22:01;3.97;;;1.50;;
65583;SDS011;62116;43.582;1.470;2022-08-18T15:24:45;3.72;;;1.50;;
65583;SDS011;62116;43.582;1.470;2022-08-18T15:27:30;3.33;;;1.73;;
65583;SDS011;62116;43.582;1.470;2022-08-18T15:29:59;4.40;;;1.60;;
65583;SDS011;62116;43.582;1.470;2022-08-18T15:32:26;3.85;;;1.50;;
65583;SDS011;62116;43.582;1.470;2022-08-18T15:34:51;3.17;;;1.63;;
65583;SDS011;62116;43.582;1.470;2022-08-18T15:37:17;4.45;;;1.60;;
65583;SDS011;62116;43.582;1.470;2022-08-18T15:39:44;2.30;;;1.30;;
65583;SDS011;62116;43.582;1.470;2022-08-18T15:42:09;2.22;;;1.48;;
65583;SDS011;62116;43.582;1.470;2022-08-18T15:44:35;5.25;;;1.33;;
65583;SDS011;62116;43.582;1.470;2022-08-18T15:47:01;5.75;;;1.85;;
65583;SDS011;62116;43.582;1.470;2022-08-18T15:49:28;4.35;;;1.52;;
65583;SDS011;62116;43.582;1.470;2022-08-18T15:51:54;3.63;;;1.30;;
65583;SDS011;62116;43.582;1.470;2022-08-18T15:54:20;2.78;;;1.25;;
65583;SDS011;62116;43.582;1.470;2022-08-18T15:56:45;1.67;;;1.10;;
65583;SDS011;62116;43.582;1.470;2022-08-18T15:59:11;2.75;;;1.33;;
65583;SDS011;62116;43.582;1.470;2022-08-18T16:01:36;1.75;;;1.17;;
65583;SDS011;62116;43.582;1.470;2022-08-18T16:04:04;4.35;;;1.23;;
65583;SDS011;62116;43.582;1.470;2022-08-18T16:06:31;3.47;;;1.10;;
65583;SDS011;62116;43.582;1.470;2022-08-18T16:08:57;3.78;;;1.40;;
65583;SDS011;62116;43.582;1.470;2022-08-18T16:11:23;3.25;;;1.40;;
65583;SDS011;62116;43.582;1.470;2022-08-18T16:13:48;3.22;;;1.23;;
65583;SDS011;62116;43.582;1.470;2022-08-18T16:16:16;4.60;;;1.55;;
65583;SDS011;62116;43.582;1.470;2022-08-18T16:18:46;3.22;;;1.50;;
65583;SDS011;62116;43.582;1.470;2022-08-18T16:21:12;4.43;;;1.60;;
65583;SDS011;62116;43.582;1.470;2022-08-18T16:23:40;3.15;;;1.45;;
65583;SDS011;62116;43.582;1.470;2022-08-18T16:26:08;2.65;;;1.33;;
65583;SDS011;62116;43.582;1.470;2022-08-18T16:28:36;2.63;;;1.30;;
65583;SDS011;62116;43.582;1.470;2022-08-18T16:31:02;1.98;;;1.15;;
65583;SDS011;62116;43.582;1.470;2022-08-18T16:33:29;4.80;;;1.70;;
65583;SDS011;62116;43.582;1.470;2022-08-18T16:35:55;2.88;;;1.45;;
65583;SDS011;62116;43.582;1.470;2022-08-18T16:38:20;4.57;;;1.40;;
65583;SDS011;62116;43.582;1.470;2022-08-18T16:40:47;3.90;;;1.48;;
65583;SDS011;62116;43.582;1.470;2022-08-18T16:43:13;4.63;;;1.42;;
65583;SDS011;62116;43.582;1.470;2022-08-18T16:45:40;4.32;;;1.35;;
65583;SDS011;62116;43.582;1.470;2022-08-18T16:48:07;3.22;;;1.20;;
65583;SDS011;62116;43.582;1.470;2022-08-18T16:50:33;4.90;;;1.40;;
65583;SDS011;62116;43.582;1.470;2022-08-18T16:52:59;4.38;;;1.30;;
65583;SDS011;62116;43.582;1.470;2022-08-18T16:55:25;5.95;;;1.48;;
65583;SDS011;62116;43.582;1.470;2022-08-18T16:57:51;4.50;;;1.38;;
65583;SDS011;62116;43.582;1.470;2022-08-18T17:00:53;6.28;;;1.55;;
65583;SDS011;62116;43.582;1.470;2022-08-18T17:03:38;6.30;;;1.50;;
65583;SDS011;62116;43.582;1.470;2022-08-18T17:06:22;3.78;;;1.30;;
65583;SDS011;62116;43.582;1.470;2022-08-18T17:08:52;5.40;;;1.57;;
65583;SDS011;62116;43.582;1.470;2022-08-18T17:11:18;3.25;;;1.40;;
65583;SDS011;62116;43.582;1.470;2022-08-18T17:13:44;3.30;;;1.50;;
65583;SDS011;62116;43.582;1.470;2022-08-18T17:16:11;4.35;;;1.60;;
65583;SDS011;62116;43.582;1.470;2022-08-18T17:18:38;4.97;;;1.55;;
65583;SDS011;62116;43.582;1.470;2022-08-18T17:21:04;4.93;;;1.50;;
65583;SDS011;62116;43.582;1.470;2022-08-18T17:23:32;6.78;;;1.60;;
65583;SDS011;62116;43.582;1.470;2022-08-18T17:25:58;5.03;;;1.38;;
65583;SDS011;62116;43.582;1.470;2022-08-18T17:28:28;4.32;;;1.40;;
65583;SDS011;62116;43.582;1.470;2022-08-18T17:31:03;4.30;;;1.90;;
65583;SDS011;62116;43.582;1.470;2022-08-18T17:33:30;4.20;;;1.83;;
65583;SDS011;62116;43.582;1.470;2022-08-18T17:35:58;3.90;;;1.50;;
65583;SDS011;62116;43.582;1.470;2022-08-18T17:38:29;3.45;;;1.50;;
65583;SDS011;62116;43.582;1.470;2022-08-18T17:41:13;3.10;;;1.50;;
65583;SDS011;62116;43.582;1.470;2022-08-18T17:43:41;3.38;;;1.75;;
65583;SDS011;62116;43.582;1.470;2022-08-18T17:46:11;4.25;;;1.85;;
65583;SDS011;62116;43.582;1.470;2022-08-18T17:49:13;3.45;;;1.70;;
65583;SDS011;62116;43.582;1.470;2022-08-18T17:51:47;7.43;;;1.80;;
65583;SDS011;62116;43.582;1.470;2022-08-18T17:54:16;4.20;;;1.58;;
65583;SDS011;62116;43.582;1.470;2022-08-18T17:56:48;4.10;;;1.92;;
65583;SDS011;62116;43.582;1.470;2022-08-18T17:59:27;3.78;;;1.70;;
65583;SDS011;62116;43.582;1.470;2022-08-18T18:02:06;5.38;;;1.90;;
65583;SDS011;62116;43.582;1.470;2022-08-18T18:04:31;3.88;;;1.90;;
65583;SDS011;62116;43.582;1.470;2022-08-18T18:06:57;4.22;;;1.90;;
65583;SDS011;62116;43.582;1.470;2022-08-18T18:11:47;3.72;;;1.60;;
65583;SDS011;62116;43.582;1.470;2022-08-18T18:14:24;4.25;;;1.90;;